Wetterdaten: Woche 07.07.08 - 13.07.08 (KW28)
Datum Zeit Temperatur Luftfeuchte Luftdruck Niederschlag Wind Richtung Sonnenschein Solar Taupunkt Windchill Windben
07.07.2008 00:00 14.6 C 97 % 1011.2 hPa 0.0 l/m 3.4 km/h (1 Bft) W-NW 0.00 h 0 W/m 14.2 C 14.6 C 6.2 km/h (2 Bft)
07.07.2008 01:00 14.4 C 96 % 1011.4 hPa 0.2 l/m 3.2 km/h (1 Bft) W-NW 0.00 h 0 W/m 13.7 C 14.4 C 6.0 km/h (2 Bft)
07.07.2008 02:00 14.1 C 97 % 1011.4 hPa 0.2 l/m 4.6 km/h (1 Bft) W-NW 0.00 h 0 W/m 13.6 C 14.1 C 7.3 km/h (2 Bft)
07.07.2008 03:00 14.0 C 98 % 1011.3 hPa 0.6 l/m 1.6 km/h (1 Bft) NW 0.00 h 0 W/m 13.7 C 14.0 C 3.2 km/h (1 Bft)
07.07.2008 04:00 14.2 C 97 % 1011.3 hPa 0.0 l/m 0.7 km/h (0 Bft) S 0.00 h 0 W/m 13.8 C 14.2 C 2.0 km/h (1 Bft)
07.07.2008 05:00 14.3 C 98 % 1010.9 hPa 0.6 l/m 0.5 km/h (0 Bft) S-SO 0.00 h 0 W/m 13.9 C 14.3 C 1.5 km/h (1 Bft)
07.07.2008 06:00 14.1 C 97 % 1010.8 hPa 0.0 l/m 1.9 km/h (1 Bft) S-SO 0.00 h 37 W/m 13.6 C 14.1 C 4.5 km/h (1 Bft)
07.07.2008 07:00 14.3 C 97 % 1011.0 hPa 0.0 l/m 1.1 km/h (1 Bft) S-SO 0.00 h 84 W/m 13.8 C 14.3 C 3.4 km/h (1 Bft)
07.07.2008 08:00 14.6 C 93 % 1011.1 hPa 0.0 l/m 3.5 km/h (1 Bft) S-SO 0.02 h 88 W/m 13.5 C 14.6 C 6.8 km/h (2 Bft)
07.07.2008 09:00 13.6 C 92 % 1011.6 hPa 0.0 l/m 8.1 km/h (2 Bft) W 0.00 h 82 W/m 12.3 C 13.6 C 12.7 km/h (3 Bft)
07.07.2008 10:00 13.4 C 90 % 1012.0 hPa 0.0 l/m 6.3 km/h (2 Bft) W 0.00 h 60 W/m 11.7 C 13.4 C 10.2 km/h (2 Bft)
07.07.2008 11:00 14.3 C 85 % 1011.9 hPa 0.0 l/m 0.5 km/h (0 Bft) S 0.08 h 241 W/m 11.9 C 14.3 C 1.8 km/h (1 Bft)
07.07.2008 12:00 17.4 C 75 % 1011.1 hPa 0.0 l/m 5.7 km/h (1 Bft) W 0.82 h 807 W/m 12.9 C 17.4 C 10.1 km/h (2 Bft)
07.07.2008 13:00 18.4 C 67 % 1010.8 hPa 0.0 l/m 10.7 km/h (2 Bft) W 0.48 h 492 W/m 12.0 C 18.4 C 17.5 km/h (3 Bft)
07.07.2008 14:00 19.6 C 59 % 1010.5 hPa 0.0 l/m 8.9 km/h (2 Bft) W 0.55 h 618 W/m 11.4 C 19.6 C 14.4 km/h (3 Bft)
07.07.2008 15:00 21.0 C 51 % 1010.3 hPa 0.0 l/m 11.0 km/h (2 Bft) W 0.73 h 636 W/m 10.6 C 21.0 C 18.3 km/h (3 Bft)
07.07.2008 16:00 22.3 C 44 % 1009.9 hPa 0.0 l/m 12.7 km/h (3 Bft) W 0.90 h 684 W/m 9.3 C 22.3 C 20.2 km/h (4 Bft)
07.07.2008 17:00 23.0 C 40 % 1009.8 hPa 0.0 l/m 13.0 km/h (3 Bft) W-NW 1.00 h 574 W/m 8.5 C 23.0 C 21.1 km/h (4 Bft)
07.07.2008 18:00 22.8 C 38 % 1009.6 hPa 0.0 l/m 13.5 km/h (3 Bft) W 0.92 h 410 W/m 7.5 C 22.8 C 21.4 km/h (4 Bft)
07.07.2008 19:00 21.6 C 40 % 1009.7 hPa 0.0 l/m 13.4 km/h (3 Bft) W 0.67 h 160 W/m 7.3 C 21.6 C 20.7 km/h (4 Bft)
07.07.2008 20:00 19.6 C 49 % 1010.5 hPa 0.0 l/m 11.3 km/h (2 Bft) W-NW 0.28 h 48 W/m 8.5 C 19.6 C 17.1 km/h (3 Bft)
07.07.2008 21:00 17.8 C 56 % 1011.2 hPa 0.0 l/m 2.2 km/h (1 Bft) W 0.00 h 8 W/m 8.8 C 17.8 C 4.4 km/h (1 Bft)
07.07.2008 22:00 17.5 C 55 % 1012.1 hPa 0.0 l/m 6.3 km/h (2 Bft) W 0.00 h 0 W/m 8.4 C 17.5 C 10.0 km/h (2 Bft)
07.07.2008 23:00 16.6 C 61 % 1012.6 hPa 0.0 l/m 3.9 km/h (1 Bft) W 0.00 h 0 W/m 9.0 C 16.6 C 6.5 km/h (2 Bft)
08.07.2008 00:00 16.0 C 64 % 1012.9 hPa 0.0 l/m 3.6 km/h (1 Bft) W 0.00 h 0 W/m 9.3 C 16.0 C 6.5 km/h (2 Bft)
08.07.2008 01:00 15.2 C 70 % 1013.1 hPa 0.0 l/m 0.4 km/h (0 Bft) W 0.00 h 0 W/m 9.7 C 15.2 C 1.5 km/h (1 Bft)
08.07.2008 02:00 15.1 C 70 % 1013.4 hPa 0.0 l/m 3.7 km/h (1 Bft) W 0.00 h 0 W/m 9.7 C 15.1 C 6.9 km/h (2 Bft)
08.07.2008 03:00 15.1 C 69 % 1013.5 hPa 0.0 l/m 4.1 km/h (1 Bft) W 0.00 h 0 W/m 9.5 C 15.1 C 7.6 km/h (2 Bft)
08.07.2008 04:00 14.6 C 70 % 1013.5 hPa 0.0 l/m 3.8 km/h (1 Bft) W-SW 0.00 h 0 W/m 9.3 C 14.6 C 7.8 km/h (2 Bft)
08.07.2008 05:00 13.4 C 78 % 1013.9 hPa 0.0 l/m 1.4 km/h (1 Bft) S-SO 0.00 h 7 W/m 9.6 C 13.4 C 3.3 km/h (1 Bft)
08.07.2008 06:00 13.2 C 80 % 1014.2 hPa 0.0 l/m 0.9 km/h (0 Bft) W-SW 0.00 h 35 W/m 9.9 C 13.2 C 3.1 km/h (1 Bft)
08.07.2008 07:00 14.4 C 76 % 1014.7 hPa 0.0 l/m 1.6 km/h (1 Bft) W-SW 0.03 h 67 W/m 10.2 C 14.4 C 4.2 km/h (1 Bft)
08.07.2008 08:00 15.9 C 69 % 1015.1 hPa 0.0 l/m 3.7 km/h (1 Bft) W 0.20 h 177 W/m 10.2 C 15.9 C 7.2 km/h (2 Bft)
08.07.2008 09:00 17.3 C 61 % 1015.1 hPa 0.0 l/m 11.1 km/h (2 Bft) W 0.45 h 319 W/m 9.7 C 17.3 C 17.5 km/h (3 Bft)
08.07.2008 10:00 17.7 C 60 % 1015.4 hPa 0.0 l/m 10.1 km/h (2 Bft) W 0.07 h 277 W/m 9.7 C 17.7 C 16.3 km/h (3 Bft)
08.07.2008 11:00 17.8 C 62 % 1015.7 hPa 0.0 l/m 8.6 km/h (2 Bft) W 0.00 h 230 W/m 10.3 C 17.8 C 13.4 km/h (3 Bft)
08.07.2008 12:00 16.8 C 72 % 1016.1 hPa 0.4 l/m 11.4 km/h (2 Bft) W 0.00 h 278 W/m 11.7 C 16.8 C 18.2 km/h (3 Bft)
08.07.2008 13:00 17.4 C 80 % 1016.4 hPa 0.0 l/m 7.4 km/h (2 Bft) W-NW 0.73 h 704 W/m 13.8 C 17.4 C 12.1 km/h (2 Bft)
08.07.2008 14:00 18.9 C 68 % 1015.7 hPa 0.0 l/m 10.8 km/h (2 Bft) W 0.50 h 607 W/m 12.9 C 18.9 C 18.3 km/h (3 Bft)
08.07.2008 15:00 19.8 C 61 % 1015.4 hPa 0.0 l/m 14.8 km/h (3 Bft) W 0.50 h 542 W/m 11.9 C 19.8 C 23.3 km/h (4 Bft)
08.07.2008 16:00 16.8 C 79 % 1016.5 hPa 0.8 l/m 13.4 km/h (3 Bft) W 0.32 h 346 W/m 13.0 C 16.8 C 21.1 km/h (4 Bft)
08.07.2008 17:00 18.9 C 67 % 1016.3 hPa 0.0 l/m 13.9 km/h (3 Bft) W 0.82 h 502 W/m 12.7 C 18.9 C 21.6 km/h (4 Bft)
08.07.2008 18:00 18.7 C 63 % 1016.4 hPa 0.0 l/m 13.5 km/h (3 Bft) W 0.50 h 294 W/m 11.3 C 18.7 C 20.9 km/h (4 Bft)
08.07.2008 19:00 19.0 C 61 % 1016.4 hPa 0.0 l/m 7.6 km/h (2 Bft) W 0.37 h 127 W/m 11.2 C 19.0 C 12.4 km/h (3 Bft)
08.07.2008 20:00 16.4 C 74 % 1017.6 hPa 0.2 l/m 17.2 km/h (3 Bft) W 0.15 h 25 W/m 11.6 C 16.4 C 26.2 km/h (4 Bft)
08.07.2008 21:00 15.1 C 79 % 1018.2 hPa 0.0 l/m 10.0 km/h (2 Bft) W 0.02 h 11 W/m 11.4 C 15.1 C 15.6 km/h (3 Bft)
08.07.2008 22:00 14.2 C 83 % 1018.9 hPa 0.0 l/m 1.6 km/h (1 Bft) SO 0.00 h 0 W/m 11.4 C 14.2 C 3.1 km/h (1 Bft)
08.07.2008 23:00 14.2 C 84 % 1019.2 hPa 0.0 l/m 1.3 km/h (1 Bft) O-SO 0.00 h 0 W/m 11.5 C 14.2 C 2.6 km/h (1 Bft)
09.07.2008 00:00 14.2 C 87 % 1019.3 hPa 0.0 l/m 2.3 km/h (1 Bft) N-NW 0.00 h 0 W/m 12.0 C 14.2 C 4.1 km/h (1 Bft)
09.07.2008 01:00 13.7 C 90 % 1019.0 hPa 0.0 l/m 0.6 km/h (0 Bft) W 0.00 h 0 W/m 12.1 C 13.7 C 1.4 km/h (1 Bft)
09.07.2008 02:00 13.4 C 92 % 1018.6 hPa 0.0 l/m 0.2 km/h (0 Bft) W 0.00 h 0 W/m 12.1 C 13.4 C 1.0 km/h (0 Bft)
09.07.2008 03:00 13.4 C 92 % 1018.5 hPa 0.0 l/m 0.7 km/h (0 Bft) S-SW 0.00 h 0 W/m 12.0 C 13.4 C 2.1 km/h (1 Bft)
09.07.2008 04:00 13.4 C 93 % 1018.5 hPa 0.0 l/m 0.0 km/h (0 Bft) S-SW 0.00 h 0 W/m 12.3 C 13.4 C 0.2 km/h (0 Bft)
09.07.2008 05:00 13.0 C 95 % 1018.5 hPa 0.0 l/m 0.7 km/h (0 Bft) S-SW 0.00 h 8 W/m 12.2 C 13.0 C 1.8 km/h (1 Bft)
09.07.2008 06:00 13.0 C 95 % 1018.7 hPa 0.0 l/m 1.5 km/h (1 Bft) SO 0.00 h 30 W/m 12.2 C 13.0 C 2.6 km/h (1 Bft)
09.07.2008 07:00 14.2 C 92 % 1019.0 hPa 0.0 l/m 0.8 km/h (0 Bft) SO 0.17 h 134 W/m 12.8 C 14.2 C 2.2 km/h (1 Bft)
09.07.2008 08:00 15.7 C 82 % 1019.2 hPa 0.0 l/m 0.8 km/h (0 Bft) S 0.12 h 174 W/m 12.7 C 15.7 C 2.9 km/h (1 Bft)
09.07.2008 09:00 17.6 C 72 % 1019.2 hPa 0.0 l/m 5.4 km/h (1 Bft) W 0.77 h 461 W/m 12.5 C 17.6 C 9.2 km/h (2 Bft)
09.07.2008 10:00 19.0 C 66 % 1018.8 hPa 0.0 l/m 10.0 km/h (2 Bft) W 0.80 h 628 W/m 12.4 C 19.0 C 16.2 km/h (3 Bft)
09.07.2008 11:00 20.6 C 59 % 1018.5 hPa 0.0 l/m 8.6 km/h (2 Bft) W 0.83 h 771 W/m 12.4 C 20.6 C 13.8 km/h (3 Bft)
09.07.2008 12:00 21.5 C 53 % 1018.1 hPa 0.0 l/m 12.5 km/h (3 Bft) W 0.80 h 775 W/m 11.6 C 21.5 C 19.5 km/h (3 Bft)
09.07.2008 13:00 22.8 C 49 % 1017.5 hPa 0.0 l/m 11.2 km/h (2 Bft) W 0.88 h 847 W/m 11.4 C 22.8 C 18.3 km/h (3 Bft)
09.07.2008 14:00 23.9 C 45 % 1017.0 hPa 0.0 l/m 10.9 km/h (2 Bft) W 0.90 h 830 W/m 11.2 C 23.9 C 17.9 km/h (3 Bft)
09.07.2008 15:00 24.3 C 44 % 1016.6 hPa 0.0 l/m 10.5 km/h (2 Bft) W-NW 1.00 h 813 W/m 11.1 C 24.3 C 16.3 km/h (3 Bft)
09.07.2008 16:00 25.1 C 43 % 1016.2 hPa 0.0 l/m 7.0 km/h (2 Bft) W-NW 0.92 h 641 W/m 11.7 C 25.1 C 11.7 km/h (2 Bft)
09.07.2008 17:00 25.4 C 42 % 1015.7 hPa 0.0 l/m 8.5 km/h (2 Bft) W 1.00 h 533 W/m 11.7 C 25.4 C 13.8 km/h (3 Bft)
09.07.2008 18:00 24.7 C 44 % 1015.6 hPa 0.0 l/m 10.0 km/h (2 Bft) W 1.00 h 365 W/m 11.6 C 24.7 C 16.0 km/h (3 Bft)
09.07.2008 19:00 23.5 C 48 % 1015.5 hPa 0.0 l/m 10.5 km/h (2 Bft) W 1.00 h 199 W/m 11.8 C 23.5 C 16.3 km/h (3 Bft)
09.07.2008 20:00 22.3 C 53 % 1015.7 hPa 0.0 l/m 9.1 km/h (2 Bft) W 0.42 h 67 W/m 12.1 C 22.3 C 13.2 km/h (3 Bft)
09.07.2008 21:00 19.8 C 63 % 1016.4 hPa 0.0 l/m 6.7 km/h (2 Bft) W-NW 0.02 h 10 W/m 12.5 C 19.8 C 9.7 km/h (2 Bft)
09.07.2008 22:00 17.3 C 75 % 1016.8 hPa 0.0 l/m 3.2 km/h (1 Bft) O-SO 0.00 h 0 W/m 12.8 C 17.3 C 4.6 km/h (1 Bft)
09.07.2008 23:00 15.9 C 81 % 1017.1 hPa 0.0 l/m 2.9 km/h (1 Bft) O-SO 0.00 h 0 W/m 12.7 C 15.9 C 4.4 km/h (1 Bft)
10.07.2008 00:00 14.6 C 86 % 1017.2 hPa 0.0 l/m 1.7 km/h (1 Bft) O-SO 0.00 h 0 W/m 12.3 C 14.6 C 3.0 km/h (1 Bft)
10.07.2008 01:00 13.7 C 89 % 1017.2 hPa 0.0 l/m 0.7 km/h (0 Bft) O-SO 0.00 h 0 W/m 11.9 C 13.7 C 1.8 km/h (1 Bft)
10.07.2008 02:00 13.3 C 90 % 1017.2 hPa 0.0 l/m 1.2 km/h (1 Bft) O-SO 0.00 h 0 W/m 11.7 C 13.3 C 2.4 km/h (1 Bft)
10.07.2008 03:00 12.9 C 92 % 1017.1 hPa 0.0 l/m 0.0 km/h (0 Bft) N 0.00 h 0 W/m 11.6 C 12.9 C 0.2 km/h (0 Bft)
10.07.2008 04:00 12.2 C 94 % 1017.1 hPa 0.0 l/m 0.4 km/h (0 Bft) O-SO 0.00 h 0 W/m 11.2 C 12.2 C 1.0 km/h (0 Bft)
10.07.2008 05:00 11.8 C 96 % 1017.0 hPa 0.0 l/m 0.0 km/h (0 Bft) N 0.02 h 8 W/m 11.1 C 11.8 C 0.1 km/h (0 Bft)
10.07.2008 06:00 11.8 C 97 % 1016.9 hPa 0.0 l/m 0.0 km/h (0 Bft) N 0.00 h 25 W/m 11.3 C 11.8 C 0.3 km/h (0 Bft)
10.07.2008 07:00 13.4 C 97 % 1016.8 hPa 0.0 l/m 0.0 km/h (0 Bft) N 0.95 h 178 W/m 12.9 C 13.4 C 0.4 km/h (0 Bft)
10.07.2008 08:00 15.8 C 89 % 1016.7 hPa 0.0 l/m 0.4 km/h (0 Bft) O-NO 1.00 h 341 W/m 13.9 C 15.8 C 1.6 km/h (1 Bft)
10.07.2008 09:00 18.4 C 79 % 1016.7 hPa 0.0 l/m 1.3 km/h (1 Bft) N-NW 1.00 h 504 W/m 14.5 C 18.4 C 2.8 km/h (1 Bft)
10.07.2008 10:00 21.9 C 65 % 1016.0 hPa 0.0 l/m 2.3 km/h (1 Bft) S-SO 1.00 h 651 W/m 14.9 C 21.9 C 4.5 km/h (1 Bft)
10.07.2008 11:00 24.1 C 54 % 1015.5 hPa 0.0 l/m 3.5 km/h (1 Bft) SO 1.00 h 763 W/m 14.2 C 24.1 C 6.9 km/h (2 Bft)
10.07.2008 12:00 25.9 C 46 % 1014.9 hPa 0.0 l/m 2.8 km/h (1 Bft) W-NW 1.00 h 837 W/m 13.5 C 25.9 C 5.5 km/h (1 Bft)
10.07.2008 13:00 27.0 C 44 % 1014.2 hPa 0.0 l/m 3.9 km/h (1 Bft) W 1.00 h 860 W/m 13.6 C 27.0 C 6.8 km/h (2 Bft)
10.07.2008 14:00 28.4 C 38 % 1013.5 hPa 0.0 l/m 3.3 km/h (1 Bft) W-SW 1.00 h 837 W/m 12.9 C 28.4 C 6.0 km/h (2 Bft)
10.07.2008 15:00 29.5 C 36 % 1012.7 hPa 0.0 l/m 4.6 km/h (1 Bft) W 1.00 h 766 W/m 12.7 C 29.5 C 7.4 km/h (2 Bft)
10.07.2008 16:00 29.8 C 33 % 1012.3 hPa 0.0 l/m 4.5 km/h (1 Bft) W-NW 1.00 h 658 W/m 11.9 C 29.8 C 7.8 km/h (2 Bft)
10.07.2008 17:00 30.1 C 33 % 1011.8 hPa 0.0 l/m 5.1 km/h (1 Bft) W 1.00 h 524 W/m 11.9 C 30.1 C 8.4 km/h (2 Bft)
10.07.2008 18:00 29.8 C 33 % 1011.3 hPa 0.0 l/m 5.4 km/h (1 Bft) W-NW 1.00 h 362 W/m 11.9 C 29.8 C 8.3 km/h (2 Bft)
10.07.2008 19:00 29.3 C 37 % 1010.9 hPa 0.0 l/m 5.2 km/h (1 Bft) W 1.00 h 200 W/m 13.1 C 29.3 C 8.2 km/h (2 Bft)
10.07.2008 20:00 26.6 C 49 % 1011.1 hPa 0.0 l/m 3.5 km/h (1 Bft) W 0.45 h 59 W/m 14.9 C 26.6 C 5.9 km/h (2 Bft)
10.07.2008 21:00 22.9 C 63 % 1011.4 hPa 0.0 l/m 2.7 km/h (1 Bft) O-SO 0.00 h 5 W/m 15.5 C 22.9 C 4.3 km/h (1 Bft)
10.07.2008 22:00 20.4 C 74 % 1011.8 hPa 0.0 l/m 5.0 km/h (1 Bft) O-SO 0.00 h 0 W/m 15.5 C 20.4 C 6.5 km/h (2 Bft)
10.07.2008 23:00 19.3 C 77 % 1011.8 hPa 0.0 l/m 2.2 km/h (1 Bft) O-SO 0.00 h 0 W/m 15.2 C 19.3 C 3.4 km/h (1 Bft)
11.07.2008 00:00 18.8 C 80 % 1011.6 hPa 0.0 l/m 2.8 km/h (1 Bft) O-SO 0.00 h 0 W/m 15.2 C 18.8 C 4.1 km/h (1 Bft)
11.07.2008 01:00 18.0 C 83 % 1011.5 hPa 0.0 l/m 0.7 km/h (0 Bft) O-SO 0.00 h 0 W/m 15.0 C 18.0 C 1.3 km/h (1 Bft)
11.07.2008 02:00 17.5 C 85 % 1011.6 hPa 0.0 l/m 2.3 km/h (1 Bft) O-SO 0.00 h 0 W/m 14.9 C 17.5 C 3.9 km/h (1 Bft)
11.07.2008 03:00 17.6 C 86 % 1011.4 hPa 0.0 l/m 1.4 km/h (1 Bft) O-SO 0.00 h 0 W/m 15.2 C 17.6 C 2.7 km/h (1 Bft)
11.07.2008 04:00 17.5 C 85 % 1011.2 hPa 0.0 l/m 2.0 km/h (1 Bft) O 0.00 h 0 W/m 14.9 C 17.5 C 3.7 km/h (1 Bft)
11.07.2008 05:00 17.7 C 83 % 1010.8 hPa 0.0 l/m 1.8 km/h (1 Bft) O 0.00 h 6 W/m 14.7 C 17.7 C 3.2 km/h (1 Bft)
11.07.2008 06:00 17.6 C 82 % 1010.5 hPa 0.0 l/m 1.0 km/h (0 Bft) O-SO 0.00 h 30 W/m 14.5 C 17.6 C 2.2 km/h (1 Bft)
11.07.2008 07:00 18.0 C 85 % 1010.5 hPa 0.0 l/m 0.1 km/h (0 Bft) S-SO 0.53 h 139 W/m 15.5 C 18.0 C 1.0 km/h (0 Bft)
11.07.2008 08:00 20.5 C 74 % 1010.5 hPa 0.0 l/m 0.2 km/h (0 Bft) S-SO 0.98 h 341 W/m 15.6 C 20.5 C 1.1 km/h (1 Bft)
11.07.2008 09:00 23.0 C 63 % 1010.5 hPa 0.0 l/m 0.9 km/h (0 Bft) W-SW 0.75 h 447 W/m 15.6 C 23.0 C 2.5 km/h (1 Bft)
11.07.2008 10:00 25.5 C 53 % 1010.0 hPa 0.0 l/m 2.0 km/h (1 Bft) S-SO 1.00 h 636 W/m 15.2 C 25.5 C 4.7 km/h (1 Bft)
11.07.2008 11:00 27.4 C 45 % 1009.5 hPa 0.0 l/m 4.9 km/h (1 Bft) W 0.95 h 738 W/m 14.2 C 27.4 C 8.7 km/h (2 Bft)
11.07.2008 12:00 28.1 C 39 % 1009.5 hPa 0.0 l/m 10.9 km/h (2 Bft) W 1.00 h 795 W/m 12.9 C 28.1 C 17.8 km/h (3 Bft)
11.07.2008 13:00 28.2 C 43 % 1009.4 hPa 0.0 l/m 10.0 km/h (2 Bft) W 1.00 h 830 W/m 14.5 C 28.2 C 15.8 km/h (3 Bft)
11.07.2008 14:00 29.1 C 43 % 1008.7 hPa 0.0 l/m 6.6 km/h (2 Bft) W-NW 0.92 h 757 W/m 15.1 C 29.1 C 10.4 km/h (2 Bft)
11.07.2008 15:00 30.0 C 39 % 1007.5 hPa 0.0 l/m 3.7 km/h (1 Bft) W 0.83 h 635 W/m 14.6 C 30.0 C 7.4 km/h (2 Bft)
11.07.2008 16:00 23.5 C 60 % 1008.3 hPa 0.2 l/m 17.0 km/h (3 Bft) W-NW 0.00 h 55 W/m 14.3 C 23.5 C 27.2 km/h (4 Bft)
11.07.2008 17:00 19.7 C 82 % 1009.7 hPa 0.0 l/m 3.6 km/h (1 Bft) N-NO 0.10 h 237 W/m 16.5 C 19.7 C 6.2 km/h (2 Bft)
11.07.2008 18:00 20.3 C 83 % 1009.7 hPa 0.2 l/m 7.4 km/h (2 Bft) W 0.00 h 40 W/m 17.3 C 20.3 C 12.7 km/h (3 Bft)
11.07.2008 19:00 18.9 C 92 % 1010.3 hPa 1.0 l/m 17.2 km/h (3 Bft) W 0.07 h 31 W/m 17.6 C 18.9 C 25.4 km/h (4 Bft)
11.07.2008 20:00 18.9 C 88 % 1010.6 hPa 0.0 l/m 3.6 km/h (1 Bft) S-SO 0.42 h 67 W/m 16.9 C 18.9 C 6.8 km/h (2 Bft)
11.07.2008 21:00 19.1 C 85 % 1011.8 hPa 0.0 l/m 4.5 km/h (1 Bft) S-SO 0.12 h 16 W/m 16.5 C 19.1 C 7.4 km/h (2 Bft)
11.07.2008 22:00 18.4 C 91 % 1012.3 hPa 1.0 l/m 0.9 km/h (0 Bft) O 0.00 h 0 W/m 16.9 C 18.4 C 2.0 km/h (1 Bft)
11.07.2008 23:00 17.9 C 97 % 1011.8 hPa 1.0 l/m 0.2 km/h (0 Bft) N-NW 0.00 h 0 W/m 17.4 C 17.9 C 0.6 km/h (0 Bft)
12.07.2008 00:00 17.5 C 99 % 1012.2 hPa 3.4 l/m 0.5 km/h (0 Bft) S 0.00 h 0 W/m 17.3 C 17.5 C 1.4 km/h (1 Bft)
12.07.2008 01:00 17.4 C 99 % 1011.6 hPa 0.0 l/m 0.2 km/h (0 Bft) SO 0.00 h 0 W/m 17.3 C 17.4 C 0.5 km/h (0 Bft)
12.07.2008 02:00 17.4 C 99 % 1011.5 hPa 0.2 l/m 0.0 km/h (0 Bft) N 0.00 h 0 W/m 17.3 C 17.4 C 0.3 km/h (0 Bft)
12.07.2008 03:00 17.3 C 100 % 1011.4 hPa 0.0 l/m 0.1 km/h (0 Bft) SO 0.00 h 0 W/m 17.3 C 17.3 C 0.7 km/h (0 Bft)
12.07.2008 04:00 17.0 C 100 % 1011.7 hPa 0.2 l/m 0.8 km/h (0 Bft) W 0.00 h 0 W/m 17.0 C 17.0 C 2.1 km/h (1 Bft)
12.07.2008 05:00 15.7 C 100 % 1011.9 hPa 0.0 l/m 4.3 km/h (1 Bft) W-NW 0.00 h 0 W/m 15.7 C 15.7 C 7.5 km/h (2 Bft)
12.07.2008 06:00 14.9 C 99 % 1012.2 hPa 0.2 l/m 6.2 km/h (2 Bft) W-NW 0.00 h 11 W/m 14.7 C 14.9 C 9.9 km/h (2 Bft)
12.07.2008 07:00 15.0 C 98 % 1012.5 hPa 0.0 l/m 1.7 km/h (1 Bft) W 0.00 h 41 W/m 14.7 C 15.0 C 4.0 km/h (1 Bft)
12.07.2008 08:00 15.6 C 94 % 1012.5 hPa 0.0 l/m 0.4 km/h (0 Bft) SW 0.00 h 73 W/m 14.6 C 15.6 C 1.2 km/h (1 Bft)
12.07.2008 09:00 15.7 C 95 % 1012.3 hPa 0.0 l/m 1.3 km/h (1 Bft) W-SW 0.00 h 77 W/m 14.9 C 15.7 C 3.4 km/h (1 Bft)
12.07.2008 10:00 15.8 C 93 % 1012.6 hPa 0.0 l/m 2.5 km/h (1 Bft) W-SW 0.00 h 81 W/m 14.6 C 15.8 C 5.2 km/h (1 Bft)
12.07.2008 11:00 15.6 C 94 % 1013.0 hPa 0.2 l/m 4.8 km/h (1 Bft) W 0.00 h 69 W/m 14.7 C 15.6 C 8.1 km/h (2 Bft)
12.07.2008 12:00 15.7 C 94 % 1013.2 hPa 0.0 l/m 4.4 km/h (1 Bft) W 0.00 h 119 W/m 14.7 C 15.7 C 7.5 km/h (2 Bft)
12.07.2008 13:00 15.9 C 91 % 1012.9 hPa 0.2 l/m 0.2 km/h (0 Bft) SW 0.00 h 110 W/m 14.5 C 15.9 C 1.6 km/h (1 Bft)
12.07.2008 14:00 16.6 C 85 % 1013.0 hPa 0.0 l/m 1.5 km/h (1 Bft) S-SO 0.00 h 196 W/m 14.2 C 16.6 C 4.0 km/h (1 Bft)
12.07.2008 15:00 18.0 C 81 % 1012.5 hPa 0.0 l/m 2.4 km/h (1 Bft) SO 0.07 h 344 W/m 14.7 C 18.0 C 4.9 km/h (1 Bft)
12.07.2008 16:00 18.3 C 81 % 1012.3 hPa 0.0 l/m 1.6 km/h (1 Bft) SO 0.15 h 244 W/m 14.9 C 18.3 C 3.9 km/h (1 Bft)
12.07.2008 17:00 19.3 C 77 % 1011.7 hPa 0.0 l/m 2.6 km/h (1 Bft) S-SO 0.50 h 367 W/m 15.2 C 19.3 C 5.6 km/h (1 Bft)
12.07.2008 18:00 18.5 C 79 % 1011.5 hPa 0.0 l/m 2.5 km/h (1 Bft) S-SO 0.03 h 130 W/m 14.7 C 18.5 C 5.4 km/h (1 Bft)
12.07.2008 19:00 17.8 C 82 % 1011.4 hPa 0.0 l/m 1.8 km/h (1 Bft) S-SO 0.00 h 82 W/m 14.7 C 17.8 C 5.0 km/h (1 Bft)
12.07.2008 20:00 17.0 C 84 % 1011.7 hPa 0.0 l/m 2.4 km/h (1 Bft) S-SO 0.00 h 16 W/m 14.2 C 17.0 C 5.1 km/h (1 Bft)
12.07.2008 21:00 16.6 C 83 % 1011.8 hPa 0.0 l/m 1.7 km/h (1 Bft) SO 0.00 h 5 W/m 13.7 C 16.6 C 3.8 km/h (1 Bft)
12.07.2008 22:00 16.2 C 86 % 1012.0 hPa 0.0 l/m 0.4 km/h (0 Bft) SO 0.00 h 0 W/m 13.9 C 16.2 C 1.0 km/h (0 Bft)
12.07.2008 23:00 15.8 C 90 % 1011.7 hPa 0.0 l/m 0.0 km/h (0 Bft) N 0.00 h 0 W/m 14.1 C 15.8 C 0.1 km/h (0 Bft)
13.07.2008 00:00 15.6 C 93 % 1011.6 hPa 0.0 l/m 0.9 km/h (0 Bft) SO 0.00 h 0 W/m 14.5 C 15.6 C 1.9 km/h (1 Bft)
13.07.2008 01:00 15.4 C 95 % 1011.0 hPa 0.0 l/m 0.2 km/h (0 Bft) O-SO 0.00 h 0 W/m 14.6 C 15.4 C 0.8 km/h (0 Bft)
13.07.2008 02:00 15.3 C 96 % 1010.3 hPa 0.2 l/m 0.0 km/h (0 Bft) N 0.00 h 0 W/m 14.6 C 15.3 C 0.4 km/h (0 Bft)
13.07.2008 03:00 15.2 C 97 % 1009.9 hPa 1.4 l/m 0.3 km/h (0 Bft) O-SO 0.00 h 0 W/m 14.8 C 15.2 C 1.2 km/h (1 Bft)
13.07.2008 04:00 15.3 C 99 % 1009.5 hPa 4.0 l/m 0.1 km/h (0 Bft) O-SO 0.00 h 0 W/m 15.1 C 15.3 C 0.5 km/h (0 Bft)
13.07.2008 05:00 15.1 C 100 % 1009.7 hPa 2.2 l/m 0.6 km/h (0 Bft) S-SW 0.00 h 0 W/m 15.1 C 15.1 C 1.8 km/h (1 Bft)
13.07.2008 06:00 15.0 C 100 % 1009.9 hPa 0.8 l/m 0.6 km/h (0 Bft) S-SW 0.00 h 8 W/m 15.0 C 15.0 C 2.2 km/h (1 Bft)
13.07.2008 07:00 14.3 C 100 % 1010.6 hPa 1.2 l/m 1.5 km/h (1 Bft) NW 0.00 h 13 W/m 14.3 C 14.3 C 3.4 km/h (1 Bft)
13.07.2008 08:00 13.3 C 100 % 1011.9 hPa 1.0 l/m 0.6 km/h (0 Bft) N-NW 0.00 h 65 W/m 13.3 C 13.3 C 1.8 km/h (1 Bft)
13.07.2008 09:00 13.7 C 97 % 1012.4 hPa 0.4 l/m 0.1 km/h (0 Bft) N-NW 0.00 h 131 W/m 13.3 C 13.7 C 1.2 km/h (1 Bft)
13.07.2008 10:00 14.8 C 94 % 1012.6 hPa 0.2 l/m 1.9 km/h (1 Bft) S-SO 0.07 h 257 W/m 13.9 C 14.8 C 4.3 km/h (1 Bft)
13.07.2008 11:00 14.8 C 96 % 1013.1 hPa 0.0 l/m 0.4 km/h (0 Bft) W-SW 0.00 h 123 W/m 14.1 C 14.8 C 2.2 km/h (1 Bft)
13.07.2008 12:00 15.0 C 97 % 1013.4 hPa 0.0 l/m 1.0 km/h (0 Bft) W-SW 0.00 h 193 W/m 14.5 C 15.0 C 2.3 km/h (1 Bft)
13.07.2008 13:00 15.7 C 91 % 1013.5 hPa 0.0 l/m 0.7 km/h (0 Bft) W 0.00 h 318 W/m 14.2 C 15.7 C 2.2 km/h (1 Bft)
13.07.2008 14:00 16.2 C 85 % 1013.3 hPa 0.0 l/m 1.5 km/h (1 Bft) W 0.00 h 361 W/m 13.7 C 16.2 C 3.4 km/h (1 Bft)
13.07.2008 15:00 16.1 C 84 % 1013.3 hPa 0.0 l/m 3.5 km/h (1 Bft) N 0.00 h 183 W/m 13.4 C 16.1 C 5.7 km/h (1 Bft)
13.07.2008 16:00 16.7 C 80 % 1013.4 hPa 0.0 l/m 3.1 km/h (1 Bft) N 0.10 h 271 W/m 13.2 C 16.7 C 5.5 km/h (1 Bft)
13.07.2008 17:00 16.0 C 82 % 1013.6 hPa 0.0 l/m 4.0 km/h (1 Bft) NW 0.00 h 120 W/m 12.9 C 16.0 C 7.1 km/h (2 Bft)
13.07.2008 18:00 15.7 C 85 % 1013.8 hPa 0.0 l/m 2.5 km/h (1 Bft) NW 0.00 h 140 W/m 13.2 C 15.7 C 4.6 km/h (1 Bft)
13.07.2008 19:00 16.0 C 79 % 1014.2 hPa 0.0 l/m 2.7 km/h (1 Bft) N-NO 0.00 h 54 W/m 12.4 C 16.0 C 6.1 km/h (2 Bft)
13.07.2008 20:00 15.0 C 79 % 1014.8 hPa 0.0 l/m 1.4 km/h (1 Bft) NO 0.00 h 12 W/m 11.4 C 15.0 C 4.2 km/h (1 Bft)
13.07.2008 21:00 14.2 C 85 % 1015.3 hPa 0.0 l/m 0.3 km/h (0 Bft) NO 0.00 h 0 W/m 11.7 C 14.2 C 1.5 km/h (1 Bft)
13.07.2008 22:00 14.1 C 89 % 1016.0 hPa 0.0 l/m 0.1 km/h (0 Bft) NO 0.00 h 0 W/m 12.3 C 14.1 C 0.4 km/h (0 Bft)
13.07.2008 23:00 13.6 C 89 % 1016.4 hPa 0.0 l/m 0.7 km/h (0 Bft) N-NO 0.00 h 0 W/m 11.9 C 13.6 C 2.3 km/h (1 Bft)
Min-Datum _ 10.07.08 10.07.08 11.07.08 - 07.07.08 - - - 07.07.08 10.07.08 07.07.08
_ Min-Zeit 05:58 17:37 16:00 - 00:30 - - - 19:27 05:58 00:47
Minimum _ 11.4 C 29 % 1006.9 hPa - 0.0 km/h (0 Bft) - - - 5.9 C 11.4 C 0.0 km/h (0 Bft)
Max-Datum _ 10.07.08 07.07.08 09.07.08 13.07.08 11.07.08 - 07.07.08 08.07.08 11.07.08 10.07.08 11.07.08
_ Max-Zeit 17:16 07:14 01:00 04:01 16:30 - 08:04 13:33 19:15 17:16 16:30
Maximum _ 30.8 C 100 % 1019.4 hPa 4.0 l/m 66.0 km/h
W-NW (8 Bft)
- 0.02 h 1190 W/m 18.1 C 30.8 C 80.0 km/h
W-NW (9 Bft)
Durchschnitt _ 18.0 C 76 % 1013.4 hPa #22.2 l/m 4.1 km/h (1 Bft) W #44:43 h 300 W/m 13.1 C 18.0 C 7.1 km/h (2 Bft)
© Kaiko 2008